Time;durP1;ratioP1;P1;durP2;ratioP2;P2;SDS_P1;SDS_P2;PMS_P1;PMS_P2;Temp;Humidity;BMP_temperature;BMP_pressure;BME280_temperature;BME280_humidity;BME280_pressure;Samples;Min_cycle;Max_cycle;Signal;HPM_P1;HPM_P2
2023/12/02 00:02:22;;;;;;;1.17;1.10;;;18.80;58.30;;;;;;4971714;28;20197;-73
2023/12/02 00:04:48;;;;;;;1.27;1.17;;;18.80;58.40;;;;;;4987581;28;20213;-73
2023/12/02 00:07:13;;;;;;;1.17;1.17;;;18.80;58.30;;;;;;4971460;28;20186;-72
2023/12/02 00:09:39;;;;;;;1.98;1.30;;;18.80;58.30;;;;;;4961084;28;20217;-72
2023/12/02 00:12:05;;;;;;;1.20;1.20;;;18.90;58.40;;;;;;4971433;28;20196;-73
2023/12/02 00:14:31;;;;;;;1.30;1.20;;;18.80;58.30;;;;;;4971280;28;20177;-73
2023/12/02 00:16:56;;;;;;;1.30;1.08;;;18.80;58.30;;;;;;4987280;28;20186;-72
2023/12/02 00:19:22;;;;;;;0.98;0.98;;;18.80;58.30;;;;;;4977524;28;20210;-73
2023/12/02 00:21:49;;;;;;;0.98;0.98;;;18.80;58.30;;;;;;4958489;28;20233;-72
2023/12/02 00:24:14;;;;;;;1.08;1.05;;;18.80;58.30;;;;;;4974664;28;20207;-73
2023/12/02 00:26:40;;;;;;;1.13;1.13;;;18.80;58.30;;;;;;4975700;28;20274;-73
2023/12/02 00:29:06;;;;;;;1.02;1.02;;;18.80;58.40;;;;;;4974288;28;20233;-73
2023/12/02 00:31:32;;;;;;;1.00;1.00;;;18.80;58.40;;;;;;4990435;28;20207;-74
2023/12/02 00:33:58;;;;;;;1.17;1.17;;;18.80;58.30;;;;;;4974349;28;20293;-73
2023/12/02 00:36:24;;;;;;;1.00;1.00;;;18.80;58.30;;;;;;4974443;28;20192;-72
2023/12/02 00:38:51;;;;;;;1.17;1.15;;;18.80;58.40;;;;;;4974048;28;20213;-72
2023/12/02 00:41:16;;;;;;;1.45;1.35;;;18.80;58.30;;;;;;4974399;28;20252;-73
2023/12/02 00:43:42;;;;;;;1.13;1.10;;;18.80;58.30;;;;;;4974145;28;20193;-73
2023/12/02 00:46:08;;;;;;;1.40;1.30;;;18.90;58.40;;;;;;4990546;28;20580;-73
2023/12/02 00:48:33;;;;;;;1.20;1.10;;;18.80;58.30;;;;;;4989843;28;20209;-73
2023/12/02 00:50:59;;;;;;;1.40;1.30;;;18.90;58.40;;;;;;4974053;28;20201;-73
2023/12/02 00:53:25;;;;;;;1.30;1.20;;;18.80;58.40;;;;;;4974352;28;20182;-73
2023/12/02 00:55:50;;;;;;;1.00;1.00;;;18.80;58.30;;;;;;4973962;28;20241;-73
2023/12/02 00:58:16;;;;;;;1.00;1.00;;;18.80;58.20;;;;;;4990426;28;20215;-73
2023/12/02 01:00:42;;;;;;;1.00;1.00;;;18.80;58.30;;;;;;4988434;28;20221;-73
2023/12/02 01:03:08;;;;;;;1.10;1.10;;;18.90;58.40;;;;;;4974213;28;20653;-73
2023/12/02 01:05:33;;;;;;;1.13;1.13;;;18.80;58.30;;;;;;4978991;28;20221;-72
2023/12/02 01:07:59;;;;;;;1.10;1.10;;;18.80;58.30;;;;;;4973915;28;20205;-72
2023/12/02 01:10:25;;;;;;;1.00;1.00;;;18.80;58.30;;;;;;4972223;28;20209;-72
2023/12/02 01:12:51;;;;;;;1.25;1.15;;;18.80;58.30;;;;;;4976888;28;20199;-72
2023/12/02 01:15:17;;;;;;;1.08;1.08;;;18.80;58.30;;;;;;4992797;28;20201;-73
2023/12/02 01:17:43;;;;;;;0.90;0.90;;;18.80;58.30;;;;;;4978440;28;20213;-72
2023/12/02 01:20:09;;;;;;;1.20;1.20;;;18.80;58.30;;;;;;4990077;28;20571;-73
2023/12/02 01:22:35;;;;;;;0.90;0.90;;;18.80;58.40;;;;;;4987209;28;20265;-73
2023/12/02 01:25:01;;;;;;;1.13;1.13;;;18.80;58.30;;;;;;4973823;28;20328;-73
2023/12/02 01:27:27;;;;;;;0.90;0.90;;;18.80;58.30;;;;;;4973521;28;20205;-73
2023/12/02 01:29:52;;;;;;;1.00;1.00;;;18.80;58.30;;;;;;4989304;28;20205;-73
2023/12/02 01:32:18;;;;;;;0.88;0.88;;;18.80;58.40;;;;;;4989452;28;20201;-73
2023/12/02 01:34:46;;;;;;;0.88;0.80;;;18.80;58.30;;;;;;4974518;28;20186;-73
2023/12/02 01:37:12;;;;;;;0.85;0.85;;;18.80;58.30;;;;;;4969889;28;20197;-73
2023/12/02 01:39:37;;;;;;;0.80;0.80;;;18.80;58.40;;;;;;4973233;28;20213;-73
2023/12/02 01:42:04;;;;;;;0.90;0.90;;;18.80;58.30;;;;;;4973195;28;20186;-73
2023/12/02 01:44:31;;;;;;;1.08;1.05;;;18.80;58.40;;;;;;4973383;28;20201;-74
2023/12/02 01:46:57;;;;;;;1.05;0.95;;;18.80;58.40;;;;;;4973054;28;20244;-72
2023/12/02 01:49:24;;;;;;;0.80;0.80;;;18.80;58.40;;;;;;4972879;28;20232;-73
2023/12/02 01:51:51;;;;;;;1.05;1.02;;;18.80;58.40;;;;;;4975404;28;20289;-73
2023/12/02 01:54:18;;;;;;;0.82;0.82;;;18.80;58.30;;;;;;4973243;28;20212;-73
2023/12/02 01:56:44;;;;;;;1.10;1.10;;;18.80;58.40;;;;;;4993645;28;20196;-73
2023/12/02 01:59:25;;;;;;;1.10;1.10;;;18.90;58.30;;;;;;4972845;28;20304;-73
2023/12/02 02:01:51;;;;;;;0.93;0.93;;;18.80;58.30;;;;;;4955356;28;20308;-73
2023/12/02 02:04:17;;;;;;;0.80;0.80;;;18.80;58.20;;;;;;4977443;28;20200;-73
2023/12/02 02:06:44;;;;;;;0.85;0.85;;;18.90;58.40;;;;;;4956582;28;20193;-73
2023/12/02 02:09:10;;;;;;;1.00;1.00;;;18.90;58.30;;;;;;4972514;28;20220;-73
2023/12/02 02:11:36;;;;;;;0.75;0.75;;;18.90;58.40;;;;;;4969445;28;20190;-72
2023/12/02 02:14:02;;;;;;;0.80;0.80;;;18.90;58.30;;;;;;4966142;28;20200;-73
2023/12/02 02:16:28;;;;;;;1.10;1.10;;;18.90;58.40;;;;;;4972580;28;20193;-73
2023/12/02 02:18:53;;;;;;;1.00;1.00;;;18.90;58.40;;;;;;4958782;28;20236;-74
2023/12/02 02:21:22;;;;;;;0.93;0.93;;;18.90;58.40;;;;;;4993515;28;20276;-73
2023/12/02 02:23:48;;;;;;;1.00;1.00;;;18.90;58.40;;;;;;4972943;28;20268;-72
2023/12/02 02:26:14;;;;;;;0.90;0.90;;;18.80;58.40;;;;;;4980313;28;20213;-73
2023/12/02 02:28:40;;;;;;;0.90;0.90;;;18.90;58.50;;;;;;4971608;28;20259;-72
2023/12/02 02:31:06;;;;;;;0.93;0.93;;;18.80;58.40;;;;;;4992504;28;20194;-72
2023/12/02 02:33:32;;;;;;;1.00;1.00;;;18.90;58.50;;;;;;4993185;28;20198;-73
2023/12/02 02:35:58;;;;;;;0.95;0.95;;;18.80;58.30;;;;;;4959433;28;20197;-73
2023/12/02 02:38:25;;;;;;;1.23;1.13;;;18.80;58.40;;;;;;4988191;28;20233;-73
2023/12/02 02:40:50;;;;;;;1.00;1.00;;;18.80;58.40;;;;;;4973814;28;20217;-73
2023/12/02 02:43:16;;;;;;;0.90;0.90;;;18.90;58.40;;;;;;4975893;28;20251;-73
2023/12/02 02:45:42;;;;;;;1.20;1.10;;;18.90;58.40;;;;;;4971954;28;20217;-73
2023/12/02 02:48:08;;;;;;;0.90;0.90;;;18.90;58.30;;;;;;4973089;28;20217;-73
2023/12/02 02:50:34;;;;;;;0.80;0.80;;;18.90;58.40;;;;;;4988348;28;20197;-73
2023/12/02 02:53:00;;;;;;;1.05;1.05;;;18.90;58.40;;;;;;4972001;28;20201;-72
2023/12/02 02:55:26;;;;;;;1.30;1.20;;;18.90;58.40;;;;;;4971891;28;20200;-72
2023/12/02 02:57:52;;;;;;;1.20;1.10;;;18.90;58.40;;;;;;4973421;28;20681;-73
2023/12/02 03:00:18;;;;;;;0.90;0.90;;;18.90;58.40;;;;;;4971739;28;20214;-72
2023/12/02 03:02:44;;;;;;;0.82;0.82;;;18.80;58.40;;;;;;4959702;28;20325;-72
2023/12/02 03:05:10;;;;;;;0.77;0.77;;;18.90;58.40;;;;;;4972203;28;20190;-71
2023/12/02 03:07:36;;;;;;;0.73;0.73;;;18.80;58.40;;;;;;4983718;28;20197;-71
2023/12/02 03:10:02;;;;;;;0.82;0.82;;;18.80;58.30;;;;;;4972050;28;20202;-72
2023/12/02 03:12:28;;;;;;;0.90;0.90;;;18.80;58.40;;;;;;4975644;28;20198;-73
2023/12/02 03:14:55;;;;;;;0.90;0.90;;;18.90;58.50;;;;;;4974196;28;20194;-72
2023/12/02 03:17:21;;;;;;;1.00;1.00;;;18.80;58.90;;;;;;4988005;28;20193;-73
2023/12/02 03:19:48;;;;;;;1.00;1.00;;;18.90;58.40;;;;;;4968853;28;20609;-73
2023/12/02 03:22:14;;;;;;;1.00;1.00;;;18.90;58.40;;;;;;4971695;28;20186;-73
2023/12/02 03:24:40;;;;;;;0.93;0.93;;;18.90;58.50;;;;;;4972024;28;20624;-72
2023/12/02 03:27:06;;;;;;;0.98;0.98;;;18.80;58.40;;;;;;4967140;28;20189;-73
2023/12/02 03:29:32;;;;;;;1.00;1.00;;;18.80;58.40;;;;;;4989182;28;20213;-71
2023/12/02 03:31:58;;;;;;;1.00;1.00;;;18.80;58.40;;;;;;4980843;28;20190;-72
2023/12/02 03:34:24;;;;;;;0.80;0.80;;;18.80;58.40;;;;;;4977889;28;20189;-73
2023/12/02 03:36:49;;;;;;;0.90;0.90;;;18.80;58.40;;;;;;4955708;28;20716;-73
2023/12/02 03:39:18;;;;;;;1.08;1.08;;;18.80;58.40;;;;;;4967419;28;20206;-73
2023/12/02 03:41:44;;;;;;;0.90;0.90;;;18.80;58.40;;;;;;4968613;28;20237;-73
2023/12/02 03:44:10;;;;;;;0.98;0.98;;;18.90;58.50;;;;;;4952333;28;20596;-71
2023/12/02 03:46:37;;;;;;;1.00;1.00;;;18.80;58.40;;;;;;4967143;28;20201;-73
2023/12/02 03:49:03;;;;;;;1.20;1.10;;;18.90;58.50;;;;;;4972693;28;20210;-73
2023/12/02 03:51:29;;;;;;;1.17;1.15;;;18.80;58.30;;;;;;4984436;28;20255;-73
2023/12/02 03:53:56;;;;;;;0.85;0.85;;;18.90;58.40;;;;;;4952141;28;20201;-72
2023/12/02 03:56:23;;;;;;;1.00;1.00;;;18.80;58.40;;;;;;4980058;28;20225;-73
2023/12/02 03:58:50;;;;;;;1.05;1.00;;;18.80;58.30;;;;;;4974038;28;20218;-73
2023/12/02 04:01:17;;;;;;;1.42;1.10;;;18.80;58.30;;;;;;4961506;28;20222;-73
2023/12/02 04:03:44;;;;;;;1.00;1.00;;;18.90;58.40;;;;;;4952403;28;20198;-73
2023/12/02 04:06:10;;;;;;;1.42;1.33;;;18.90;58.40;;;;;;4968975;28;20281;-73
2023/12/02 04:08:36;;;;;;;1.10;1.10;;;18.80;58.40;;;;;;4963827;28;20360;-73
2023/12/02 04:11:02;;;;;;;0.90;0.90;;;18.90;58.40;;;;;;4968927;28;20679;-73
2023/12/02 04:13:28;;;;;;;1.30;1.27;;;18.80;58.40;;;;;;4984409;28;20201;-73
2023/12/02 04:15:55;;;;;;;0.90;0.90;;;18.80;58.40;;;;;;4955601;28;20204;-73
2023/12/02 04:18:21;;;;;;;1.10;1.10;;;18.80;58.40;;;;;;4973538;28;20231;-73
2023/12/02 04:20:46;;;;;;;1.08;1.08;;;18.80;58.40;;;;;;4950845;29;20244;-73
2023/12/02 04:23:13;;;;;;;1.00;1.00;;;18.90;58.40;;;;;;4972121;28;20189;-73
2023/12/02 04:25:40;;;;;;;1.35;1.25;;;18.80;58.40;;;;;;4985299;28;20193;-73
2023/12/02 04:28:07;;;;;;;1.40;1.30;;;18.80;58.40;;;;;;4975755;28;20209;-73
2023/12/02 04:30:34;;;;;;;1.17;1.17;;;18.90;58.40;;;;;;4971838;28;20616;-73
2023/12/02 04:32:59;;;;;;;1.00;1.00;;;18.90;58.40;;;;;;4958802;28;20197;-72
2023/12/02 04:35:25;;;;;;;1.00;1.00;;;18.80;58.30;;;;;;4974576;28;20204;-72
2023/12/02 04:37:51;;;;;;;1.10;1.10;;;18.90;58.40;;;;;;4982672;28;20218;-72
2023/12/02 04:40:17;;;;;;;1.30;1.27;;;18.90;58.40;;;;;;4945152;28;20218;-73
2023/12/02 04:42:43;;;;;;;1.20;1.20;;;18.90;58.30;;;;;;4980114;28;20256;-73
2023/12/02 04:45:09;;;;;;;1.50;1.40;;;18.90;58.40;;;;;;4959690;28;20197;-72
2023/12/02 04:47:38;;;;;;;1.20;1.20;;;18.80;58.30;;;;;;4971101;28;20190;-72
2023/12/02 04:50:06;;;;;;;1.25;1.25;;;18.80;58.40;;;;;;4988840;28;20198;-73
2023/12/02 04:52:32;;;;;;;1.27;1.17;;;18.80;58.30;;;;;;4971346;28;20209;-73
2023/12/02 04:54:58;;;;;;;1.50;1.40;;;18.90;58.40;;;;;;4979082;28;20197;-73
2023/12/02 04:57:25;;;;;;;1.30;1.30;;;18.80;58.30;;;;;;4976595;28;20235;-73
2023/12/02 04:59:51;;;;;;;1.50;1.40;;;18.80;58.40;;;;;;4963916;28;20194;-72
2023/12/02 05:02:20;;;;;;;1.38;1.27;;;18.80;58.30;;;;;;4975124;28;20181;-73
2023/12/02 05:04:47;;;;;;;1.50;1.40;;;18.80;58.30;;;;;;4969282;28;20190;-73
2023/12/02 05:07:14;;;;;;;1.63;1.52;;;18.80;58.40;;;;;;4984778;28;20221;-72
2023/12/02 05:09:40;;;;;;;1.55;1.45;;;18.80;58.40;;;;;;4969355;28;20213;-73
2023/12/02 05:12:07;;;;;;;1.98;1.27;;;18.80;58.40;;;;;;4974942;28;20181;-72
2023/12/02 05:14:34;;;;;;;1.10;1.10;;;18.80;58.30;;;;;;4976040;28;20194;-72
2023/12/02 05:16:59;;;;;;;1.50;1.40;;;18.80;58.90;;;;;;4970139;28;20193;-73
2023/12/02 05:19:25;;;;;;;1.40;1.30;;;18.80;58.30;;;;;;4991880;28;20217;-73
2023/12/02 05:21:51;;;;;;;1.50;1.40;;;18.80;58.30;;;;;;4973934;28;20221;-73
2023/12/02 05:24:19;;;;;;;1.80;1.70;;;18.80;58.30;;;;;;4975650;28;20253;-72
2023/12/02 05:26:45;;;;;;;1.50;1.40;;;18.90;58.30;;;;;;4968959;28;20194;-72
2023/12/02 05:29:12;;;;;;;1.60;1.50;;;18.90;58.40;;;;;;4954982;28;20260;-73
2023/12/02 05:31:38;;;;;;;1.45;1.35;;;18.90;58.30;;;;;;4973701;28;20205;-73
2023/12/02 05:34:04;;;;;;;1.30;1.20;;;18.90;58.30;;;;;;4989518;28;20221;-72
2023/12/02 05:36:30;;;;;;;1.38;1.27;;;18.90;58.30;;;;;;4973112;28;20259;-73
2023/12/02 05:38:56;;;;;;;2.13;1.45;;;18.90;58.30;;;;;;4977329;28;20221;-73
2023/12/02 05:41:22;;;;;;;1.58;1.48;;;18.80;58.40;;;;;;4987631;28;20221;-73
2023/12/02 05:43:48;;;;;;;1.52;1.42;;;18.90;58.40;;;;;;4989429;28;20190;-73
2023/12/02 05:46:15;;;;;;;1.60;1.50;;;18.90;58.40;;;;;;4973254;28;20197;-73
2023/12/02 05:48:43;;;;;;;1.50;1.40;;;18.90;58.40;;;;;;4985832;28;20213;-73
2023/12/02 05:51:09;;;;;;;1.50;1.40;;;18.90;58.30;;;;;;4955511;28;20285;-73
2023/12/02 05:53:34;;;;;;;1.60;1.50;;;18.90;58.40;;;;;;4972876;28;20665;-73
2023/12/02 05:56:00;;;;;;;1.60;1.50;;;18.90;58.30;;;;;;4976595;28;20201;-73
2023/12/02 05:58:26;;;;;;;1.45;1.35;;;18.80;58.30;;;;;;4972931;28;20635;-73
2023/12/02 06:00:52;;;;;;;1.45;1.35;;;18.90;58.40;;;;;;4973009;28;20217;-73
2023/12/02 06:03:17;;;;;;;1.50;1.40;;;18.80;58.30;;;;;;4973922;28;20208;-73
2023/12/02 06:05:43;;;;;;;1.50;1.40;;;18.80;58.40;;;;;;4974111;28;20177;-72
2023/12/02 06:08:09;;;;;;;1.55;1.45;;;18.90;58.40;;;;;;4981785;28;20202;-73
2023/12/02 06:10:34;;;;;;;1.67;1.58;;;18.80;58.30;;;;;;4979370;28;20253;-73
2023/12/02 06:13:00;;;;;;;1.90;1.80;;;18.80;58.30;;;;;;4985958;28;20244;-74
2023/12/02 06:15:26;;;;;;;1.70;1.60;;;18.80;58.30;;;;;;4972747;28;20272;-73
2023/12/02 06:17:56;;;;;;;1.67;1.58;;;18.80;58.40;;;;;;4977105;28;20225;-74
2023/12/02 06:20:26;;;;;;;1.73;1.63;;;18.80;58.30;;;;;;4954685;28;20760;-73
2023/12/02 06:22:52;;;;;;;1.60;1.50;;;18.80;58.30;;;;;;4978875;28;20219;-73
2023/12/02 06:25:18;;;;;;;1.50;1.40;;;18.80;58.30;;;;;;4989398;28;20197;-74
2023/12/02 06:27:45;;;;;;;1.50;1.40;;;18.80;58.30;;;;;;4976393;28;20307;-73
2023/12/02 06:30:17;;;;;;;1.60;1.50;;;18.80;58.30;;;;;;4990079;28;20292;-73
2023/12/02 06:32:42;;;;;;;1.92;1.70;;;18.80;58.20;;;;;;4972884;28;20265;-72
2023/12/02 06:35:09;;;;;;;1.25;1.25;;;18.90;58.40;;;;;;4973489;28;20194;-72
2023/12/02 06:37:35;;;;;;;1.40;1.30;;;18.90;58.40;;;;;;4988643;28;20190;-72
2023/12/02 06:40:01;;;;;;;1.70;1.60;;;18.80;58.20;;;;;;4956049;28;20228;-73
2023/12/02 06:42:27;;;;;;;1.50;1.40;;;18.90;58.40;;;;;;4956270;28;20197;-73
2023/12/02 06:44:52;;;;;;;1.70;1.60;;;18.80;58.20;;;;;;4956555;28;20232;-73
2023/12/02 06:47:18;;;;;;;1.42;1.33;;;18.90;58.40;;;;;;4960216;28;20197;-73
2023/12/02 06:49:44;;;;;;;1.40;1.30;;;18.90;58.40;;;;;;4982455;28;20215;-72
2023/12/02 06:52:09;;;;;;;1.60;1.50;;;18.90;58.30;;;;;;4982889;28;20193;-72
2023/12/02 06:54:36;;;;;;;1.35;1.25;;;18.90;58.40;;;;;;4988279;28;20193;-73
2023/12/02 06:57:05;;;;;;;1.50;1.40;;;18.90;58.40;;;;;;4956034;28;20214;-72
2023/12/02 06:59:31;;;;;;;1.60;1.50;;;18.90;58.40;;;;;;4971329;28;20405;-73
2023/12/02 07:01:56;;;;;;;1.50;1.40;;;18.90;58.40;;;;;;4971668;28;20217;-73
2023/12/02 07:04:22;;;;;;;1.20;1.15;;;18.90;58.40;;;;;;4957551;28;20194;-72
2023/12/02 07:06:49;;;;;;;1.25;1.25;;;18.90;58.40;;;;;;4973151;28;20220;-72
2023/12/02 07:09:15;;;;;;;1.42;1.33;;;18.90;58.50;;;;;;4957577;28;20217;-73
2023/12/02 07:11:41;;;;;;;1.50;1.40;;;18.90;58.50;;;;;;4972041;28;20201;-73
2023/12/02 07:14:07;;;;;;;1.45;1.35;;;18.90;58.50;;;;;;4971761;28;20193;-73
2023/12/02 07:16:33;;;;;;;1.60;1.50;;;19.00;58.60;;;;;;4970803;28;20209;-73
2023/12/02 07:18:58;;;;;;;1.33;1.23;;;19.00;58.60;;;;;;4954549;28;20213;-73
2023/12/02 07:21:24;;;;;;;1.63;1.52;;;18.90;58.60;;;;;;4972811;28;20209;-72
2023/12/02 07:23:50;;;;;;;1.65;1.55;;;18.90;58.60;;;;;;4967532;28;20197;-73
2023/12/02 07:26:16;;;;;;;1.73;1.63;;;19.00;58.60;;;;;;4968503;28;20268;-72
2023/12/02 07:28:41;;;;;;;1.52;1.42;;;18.90;58.60;;;;;;4958419;28;20595;-73
2023/12/02 07:31:17;;;;;;;1.50;1.40;;;19.00;58.70;;;;;;4972351;28;20673;-73
2023/12/02 07:33:43;;;;;;;1.67;1.58;;;18.90;58.90;;;;;;4950555;28;20295;-72
2023/12/02 07:36:10;;;;;;;1.20;1.20;;;18.90;58.60;;;;;;4990878;28;20196;-72
2023/12/02 07:38:36;;;;;;;1.50;1.40;;;19.00;58.80;;;;;;4976780;28;20206;-72
2023/12/02 07:41:02;;;;;;;1.50;1.40;;;19.00;58.80;;;;;;4975298;28;20209;-73
2023/12/02 07:43:28;;;;;;;1.70;1.60;;;19.00;58.80;;;;;;4967098;28;20200;-73
2023/12/02 07:45:53;;;;;;;1.40;1.30;;;19.00;58.80;;;;;;4959261;28;20192;-73
2023/12/02 07:48:19;;;;;;;1.65;1.55;;;18.90;58.70;;;;;;4991469;28;20212;-72
2023/12/02 07:50:45;;;;;;;1.52;1.42;;;18.90;58.70;;;;;;4959205;28;20197;-72
2023/12/02 07:53:11;;;;;;;1.27;1.17;;;18.90;58.70;;;;;;4975142;28;20197;-72
2023/12/02 07:55:36;;;;;;;1.45;1.23;;;18.90;58.70;;;;;;4966160;28;20647;-73
2023/12/02 07:58:02;;;;;;;1.45;1.35;;;18.90;58.80;;;;;;4965533;28;20218;-73
2023/12/02 08:00:28;;;;;;;1.60;1.50;;;18.90;58.80;;;;;;4990123;28;20224;-73
2023/12/02 08:02:54;;;;;;;1.27;1.17;;;19.00;58.90;;;;;;4958067;28;20186;-72
2023/12/02 08:05:19;;;;;;;1.50;1.40;;;19.00;58.80;;;;;;4988872;28;20253;-72
2023/12/02 08:07:46;;;;;;;1.63;1.52;;;19.00;58.90;;;;;;4989288;28;20681;-73
2023/12/02 08:10:12;;;;;;;1.55;1.45;;;19.00;58.90;;;;;;4983106;28;20192;-72
2023/12/02 08:12:39;;;;;;;1.40;1.30;;;18.90;58.80;;;;;;4974926;28;20193;-72
2023/12/02 08:15:06;;;;;;;1.50;1.40;;;19.00;58.80;;;;;;4975264;28;20225;-73
2023/12/02 08:17:32;;;;;;;1.60;1.50;;;19.00;58.90;;;;;;4974934;28;20202;-72
2023/12/02 08:19:57;;;;;;;1.63;1.20;;;19.00;58.90;;;;;;4971774;28;20189;-72
2023/12/02 08:22:24;;;;;;;1.40;1.30;;;19.00;59.00;;;;;;4973406;28;20188;-73
2023/12/02 08:24:53;;;;;;;1.23;1.17;;;19.00;58.90;;;;;;4974635;28;20188;-72
2023/12/02 08:27:21;;;;;;;1.33;1.23;;;19.00;59.00;;;;;;4974422;28;20192;-72
2023/12/02 08:29:46;;;;;;;1.30;1.20;;;19.00;59.00;;;;;;4990642;28;20217;-72
2023/12/02 08:32:12;;;;;;;1.30;1.20;;;19.00;59.00;;;;;;4991236;28;20201;-72
2023/12/02 08:34:38;;;;;;;1.40;1.30;;;19.00;59.00;;;;;;4958588;28;20206;-73
2023/12/02 08:37:04;;;;;;;1.27;1.20;;;19.00;59.00;;;;;;4958449;28;20197;-73
2023/12/02 08:39:30;;;;;;;1.90;1.23;;;19.00;59.10;;;;;;4990454;28;20693;-73
2023/12/02 08:41:55;;;;;;;1.40;1.30;;;19.00;59.00;;;;;;4974004;28;20216;-73
2023/12/02 08:44:23;;;;;;;1.30;1.20;;;19.00;59.00;;;;;;4990327;28;20194;-73
2023/12/02 08:46:50;;;;;;;1.20;1.20;;;19.00;59.00;;;;;;4974500;28;20189;-74
2023/12/02 08:49:16;;;;;;;1.48;1.38;;;19.00;59.00;;;;;;4975163;28;20206;-73
2023/12/02 08:51:41;;;;;;;1.98;1.10;;;19.00;59.10;;;;;;4974285;28;20205;-73
2023/12/02 08:54:07;;;;;;;2.55;1.20;;;19.00;59.40;;;;;;4974104;28;20200;-72
2023/12/02 08:56:33;;;;;;;0.90;0.90;;;19.20;67.10;;;;;;4991477;28;20202;-72
2023/12/02 08:58:59;;;;;;;2.22;1.20;;;19.50;68.00;;;;;;4966173;28;20220;-72
2023/12/02 09:01:26;;;;;;;4.07;1.20;;;19.70;68.10;;;;;;4990026;28;20271;-74
2023/12/02 09:03:52;;;;;;;2.80;1.13;;;19.80;68.00;;;;;;4987443;28;20194;-73
2023/12/02 09:06:18;;;;;;;3.13;1.42;;;19.90;68.00;;;;;;4990173;28;20294;-72
2023/12/02 09:08:44;;;;;;;2.95;1.30;;;19.90;68.00;;;;;;4989799;28;20230;-73
2023/12/02 09:11:11;;;;;;;10.10;1.30;;;19.90;68.00;;;;;;4974038;28;20194;-73
2023/12/02 09:13:41;;;;;;;2.20;1.27;;;19.90;68.30;;;;;;4973389;28;20200;-73
2023/12/02 09:16:28;;;;;;;1.50;1.27;;;19.90;68.30;;;;;;4974779;28;20196;-73
2023/12/02 09:18:54;;;;;;;1.92;1.08;;;20.00;68.60;;;;;;4967854;28;20216;-72
2023/12/02 09:21:44;;;;;;;1.95;0.95;;;20.00;68.60;;;;;;4989862;28;20225;-73
2023/12/02 09:24:40;;;;;;;4.50;1.25;;;20.00;68.60;;;;;;4973719;28;20205;-72
2023/12/02 09:27:07;;;;;;;1.70;1.17;;;20.00;68.60;;;;;;4989610;28;20197;-72
2023/12/02 09:29:41;;;;;;;3.63;1.52;;;20.10;69.40;;;;;;4973214;28;20253;-71
2023/12/02 09:32:45;;;;;;;3.55;1.23;;;20.10;68.50;;;;;;4973529;28;20186;-73
2023/12/02 09:35:11;;;;;;;3.20;1.20;;;20.10;68.50;;;;;;4989262;28;20261;-73
2023/12/02 09:37:56;;;;;;;1.85;1.30;;;20.10;68.60;;;;;;4975465;28;20199;-71
2023/12/02 09:40:22;;;;;;;3.03;1.10;;;20.10;68.70;;;;;;4973279;28;20276;-72
2023/12/02 09:43:45;;;;;;;2.67;1.10;;;19.90;68.00;;;;;;4980278;28;20244;-71
2023/12/02 09:46:30;;;;;;;1.42;1.30;;;19.70;68.00;;;;;;4954168;28;20205;-72
2023/12/02 09:49:17;;;;;;;3.58;1.40;;;19.60;67.90;;;;;;4978570;28;20220;-71
2023/12/02 09:52:14;;;;;;;1.23;1.13;;;19.50;67.60;;;;;;4972226;28;20288;-71
2023/12/02 09:54:52;;;;;;;2.55;1.13;;;19.50;67.60;;;;;;4996035;28;20203;-70
2023/12/02 09:58:00;;;;;;;2.58;1.20;;;19.40;67.20;;;;;;4972970;28;20190;-71
2023/12/02 10:00:47;;;;;;;1.23;1.13;;;19.40;67.10;;;;;;4939360;28;20235;-72
2023/12/02 10:04:10;;;;;;;2.22;1.40;;;19.40;66.90;;;;;;4973228;28;20264;-71
2023/12/02 10:07:01;;;;;;;2.25;1.27;;;19.40;66.60;;;;;;4976454;28;20189;-70
2023/12/02 10:10:06;;;;;;;1.67;1.40;;;19.40;66.40;;;;;;4984152;28;20209;-70
2023/12/02 10:12:55;;;;;;;2.35;1.35;;;19.40;66.30;;;;;;4971992;28;20676;-72
2023/12/02 10:15:27;;;;;;;2.85;1.55;;;19.40;66.30;;;;;;4980674;28;20182;-71
2023/12/02 10:18:00;;;;;;;2.08;1.30;;;19.30;66.10;;;;;;4980227;28;20260;-71
2023/12/02 10:20:34;;;;;;;1.90;1.05;;;19.30;66.00;;;;;;4985807;28;20271;-71
2023/12/02 10:23:20;;;;;;;2.55;1.27;;;19.30;65.80;;;;;;4973458;28;20212;-71
2023/12/02 10:26:00;;;;;;;1.30;1.20;;;19.30;65.70;;;;;;4973357;28;20193;-72
2023/12/02 10:29:18;;;;;;;2.85;1.10;;;19.30;65.60;;;;;;4971403;28;20214;-71
2023/12/02 10:32:31;;;;;;;3.70;1.20;;;19.30;65.50;;;;;;4946150;28;20198;-70
2023/12/02 10:35:12;;;;;;;2.72;1.40;;;19.30;65.40;;;;;;4974513;28;20193;-70
2023/12/02 10:37:41;;;;;;;2.88;1.10;;;19.30;65.30;;;;;;4957359;28;20221;-69
2023/12/02 10:40:12;;;;;;;3.40;1.30;;;19.30;65.10;;;;;;4969053;28;20193;-70
2023/12/02 10:42:52;;;;;;;2.22;1.30;;;19.30;65.10;;;;;;4971867;28;20193;-70
2023/12/02 10:45:21;;;;;;;1.98;1.25;;;19.30;65.00;;;;;;4977513;28;20231;-71
2023/12/02 10:47:51;;;;;;;3.60;1.50;;;19.30;65.00;;;;;;4967234;28;20360;-70
2023/12/02 10:50:18;;;;;;;2.00;1.30;;;19.30;65.00;;;;;;4975250;28;20193;-70
2023/12/02 10:53:00;;;;;;;2.10;1.30;;;19.30;64.90;;;;;;4965970;28;20673;-70
2023/12/02 10:55:31;;;;;;;1.50;1.40;;;19.30;64.80;;;;;;4973318;28;20204;-71
2023/12/02 10:57:59;;;;;;;1.40;1.30;;;19.30;64.70;;;;;;4982635;28;20703;-71
2023/12/02 11:00:30;;;;;;;1.98;1.45;;;19.30;64.60;;;;;;4988206;28;20209;-70
2023/12/02 11:03:05;;;;;;;1.30;1.20;;;19.30;64.50;;;;;;4966633;28;20329;-71
2023/12/02 11:05:43;;;;;;;1.50;1.40;;;19.30;64.50;;;;;;4971855;28;20193;-71
2023/12/02 11:08:19;;;;;;;1.50;1.40;;;19.30;64.30;;;;;;4968931;28;20692;-71
2023/12/02 11:10:54;;;;;;;2.00;1.40;;;19.30;64.30;;;;;;4977853;28;20204;-70
2023/12/02 11:13:23;;;;;;;2.45;1.40;;;19.30;64.30;;;;;;4978615;28;20192;-71
2023/12/02 11:16:22;;;;;;;1.73;1.27;;;19.30;64.30;;;;;;4971885;28;20220;-71
2023/12/02 11:19:22;;;;;;;1.40;1.30;;;19.30;64.30;;;;;;4976248;28;20271;-71
2023/12/02 11:22:38;;;;;;;1.70;1.30;;;19.30;64.20;;;;;;4970280;28;20592;-71
2023/12/02 11:25:31;;;;;;;2.00;1.30;;;19.30;64.10;;;;;;4935311;29;20197;-71
2023/12/02 11:28:05;;;;;;;1.75;1.50;;;19.30;64.10;;;;;;4935220;29;20210;-71
2023/12/02 11:31:01;;;;;;;1.60;1.05;;;19.40;64.20;;;;;;4963105;28;20267;-71
2023/12/02 11:34:07;;;;;;;3.83;1.48;;;19.30;64.10;;;;;;4976189;28;20244;-71
2023/12/02 11:36:35;;;;;;;2.00;1.40;;;19.30;64.10;;;;;;4977577;28;20197;-70
2023/12/02 11:39:23;;;;;;;1.65;1.45;;;19.30;64.10;;;;;;4971893;28;20216;-71
2023/12/02 11:41:55;;;;;;;1.73;1.27;;;19.30;64.00;;;;;;4975744;28;20235;-70
2023/12/02 11:44:56;;;;;;;1.58;1.35;;;19.30;64.00;;;;;;4987788;28;20729;-71
2023/12/02 11:47:53;;;;;;;1.40;1.30;;;19.30;64.00;;;;;;4962970;28;20225;-71
2023/12/02 11:50:38;;;;;;;1.48;1.38;;;19.30;63.90;;;;;;4964299;28;20201;-70
2023/12/02 11:53:45;;;;;;;1.50;1.40;;;19.30;63.90;;;;;;4962386;28;20193;-70
2023/12/02 11:56:17;;;;;;;2.50;1.50;;;19.30;63.90;;;;;;4963136;28;20196;-70
2023/12/02 11:58:58;;;;;;;3.83;1.73;;;19.30;63.80;;;;;;4974062;28;20218;-71
2023/12/02 12:01:49;;;;;;;1.50;1.40;;;19.30;63.80;;;;;;4987806;28;20685;-70
2023/12/02 12:05:00;;;;;;;2.10;1.48;;;19.30;63.80;;;;;;4957600;28;20608;-70
2023/12/02 12:07:39;;;;;;;2.97;1.38;;;19.30;63.80;;;;;;4953670;28;20221;-72
2023/12/02 12:10:36;;;;;;;2.25;1.20;;;19.30;63.80;;;;;;4965182;28;20268;-70
2023/12/02 12:13:03;;;;;;;1.52;1.40;;;19.30;63.90;;;;;;4975687;28;20197;-70
2023/12/02 12:15:30;;;;;;;1.70;1.25;;;19.30;63.80;;;;;;4987903;28;20194;-71
2023/12/02 12:17:56;;;;;;;1.70;1.60;;;19.30;63.80;;;;;;4971406;28;20211;-70
2023/12/02 12:20:26;;;;;;;1.65;1.45;;;19.30;63.80;;;;;;4975968;28;20288;-71
2023/12/02 12:22:52;;;;;;;1.77;1.35;;;19.30;63.70;;;;;;4973553;28;20729;-70
2023/12/02 12:25:18;;;;;;;1.75;1.50;;;19.20;63.60;;;;;;4990804;28;20186;-70
2023/12/02 12:27:44;;;;;;;3.25;1.25;;;19.20;64.40;;;;;;4977925;28;20188;-71
2023/12/02 12:30:10;;;;;;;2.13;1.85;;;19.30;63.70;;;;;;4990986;28;20197;-70
2023/12/02 12:32:38;;;;;;;2.08;1.52;;;19.30;63.70;;;;;;4981589;28;20195;-70
2023/12/02 12:35:14;;;;;;;2.25;1.40;;;19.30;63.70;;;;;;4977368;28;20642;-68
2023/12/02 12:37:41;;;;;;;1.48;1.38;;;19.30;63.70;;;;;;4995362;28;20196;-70
2023/12/02 12:40:12;;;;;;;1.67;1.50;;;19.30;63.60;;;;;;4983060;28;20184;-70
2023/12/02 12:42:49;;;;;;;1.95;1.77;;;19.30;63.60;;;;;;4974138;28;20209;-70
2023/12/02 12:45:15;;;;;;;2.35;1.65;;;19.20;63.40;;;;;;4992168;28;20243;-69
2023/12/02 12:47:45;;;;;;;1.80;1.70;;;19.30;63.50;;;;;;4975441;28;20276;-70
2023/12/02 12:50:12;;;;;;;2.10;1.33;;;19.20;63.40;;;;;;4974306;28;20677;-70
2023/12/02 12:52:51;;;;;;;1.98;1.83;;;19.20;63.40;;;;;;4954873;28;20652;-69
2023/12/02 12:55:21;;;;;;;2.20;1.70;;;19.20;63.30;;;;;;4977267;28;20269;-70
2023/12/02 12:57:56;;;;;;;2.97;1.98;;;19.20;63.30;;;;;;4966666;28;20205;-69
2023/12/02 13:00:27;;;;;;;1.95;1.80;;;19.20;63.30;;;;;;4972550;28;20221;-68
2023/12/02 13:03:20;;;;;;;2.00;1.80;;;19.20;63.30;;;;;;4973982;28;20239;-70
2023/12/02 13:06:04;;;;;;;1.85;1.65;;;19.20;63.30;;;;;;4973362;28;20189;-70